Time;durP1;ratioP1;P1;durP2;ratioP2;P2;SDS_P1;SDS_P2;PMS_P1;PMS_P2;Temp;Humidity;BMP_temperature;BMP_pressure;BME280_temperature;BME280_humidity;BME280_pressure;Samples;Min_cycle;Max_cycle;Signal;HPM_P1;HPM_P2
2023/06/26 00:02:18;;;;;;;13.90;12.60;;;22.00;99.90;;;;;;5117676;27;20509;-39
2023/06/26 00:04:44;;;;;;;15.35;13.60;;;22.00;99.90;;;;;;5117456;27;20043;-39
2023/06/26 00:07:10;;;;;;;14.82;13.50;;;22.00;99.90;;;;;;5098130;27;20057;-39
2023/06/26 00:09:36;;;;;;;14.48;12.98;;;21.90;99.90;;;;;;5116106;27;20695;-39
2023/06/26 00:12:02;;;;;;;13.88;12.57;;;21.90;99.90;;;;;;5097289;27;20039;-39
2023/06/26 00:14:28;;;;;;;14.23;12.93;;;21.90;99.90;;;;;;5116838;27;20492;-39
2023/06/26 00:16:53;;;;;;;16.02;14.38;;;21.90;99.90;;;;;;5115812;27;20091;-39
2023/06/26 00:19:19;;;;;;;14.32;13.13;;;21.80;99.90;;;;;;5097031;27;20054;-40
2023/06/26 00:21:47;;;;;;;14.25;12.95;;;21.90;99.90;;;;;;5097893;27;20444;-40
2023/06/26 00:24:17;;;;;;;15.90;14.40;;;21.80;99.90;;;;;;5098520;27;20054;-40
2023/06/26 00:26:43;;;;;;;15.13;13.18;;;21.80;99.90;;;;;;5116771;27;20035;-39
2023/06/26 00:29:09;;;;;;;14.95;13.45;;;21.80;99.90;;;;;;5116235;27;20057;-40
2023/06/26 00:31:38;;;;;;;15.80;14.25;;;21.80;99.90;;;;;;5116602;27;20035;-39
2023/06/26 00:34:03;;;;;;;14.40;13.10;;;21.80;99.90;;;;;;5093367;28;20048;-40
2023/06/26 00:36:29;;;;;;;14.65;13.45;;;21.70;99.90;;;;;;5115102;27;20035;-39
2023/06/26 00:38:55;;;;;;;16.00;14.60;;;21.70;99.90;;;;;;5086156;27;20051;-39
2023/06/26 00:41:20;;;;;;;16.95;15.35;;;21.60;99.90;;;;;;5105105;27;20057;-40
2023/06/26 00:43:46;;;;;;;15.57;14.27;;;21.60;99.90;;;;;;5105745;27;20062;-40
2023/06/26 00:46:15;;;;;;;15.68;14.15;;;21.60;99.90;;;;;;5112932;27;20042;-39
2023/06/26 00:48:43;;;;;;;15.93;14.48;;;21.60;99.90;;;;;;5115973;27;20279;-39
2023/06/26 00:51:09;;;;;;;16.48;14.77;;;21.50;99.90;;;;;;5116655;27;20042;-39
2023/06/26 00:53:36;;;;;;;15.93;14.43;;;21.50;99.90;;;;;;5115868;27;20035;-40
2023/06/26 00:56:05;;;;;;;14.75;13.35;;;21.50;99.90;;;;;;5116158;27;20422;-39
2023/06/26 00:58:31;;;;;;;15.63;14.13;;;21.50;99.90;;;;;;5096777;27;20043;-39
2023/06/26 01:00:57;;;;;;;15.48;14.18;;;21.50;99.90;;;;;;5112991;27;20046;-39
2023/06/26 01:03:24;;;;;;;15.23;13.77;;;21.40;99.90;;;;;;5112123;27;20392;-39
2023/06/26 01:05:58;;;;;;;15.18;13.88;;;21.50;99.90;;;;;;5115748;27;20050;-39
2023/06/26 01:08:25;;;;;;;14.82;13.52;;;21.50;99.90;;;;;;5114478;27;20533;-39
2023/06/26 01:10:51;;;;;;;14.30;12.80;;;21.50;99.90;;;;;;5115340;27;20039;-40
2023/06/26 01:13:17;;;;;;;14.18;12.98;;;21.40;99.90;;;;;;5097327;27;20047;-39
2023/06/26 01:15:43;;;;;;;15.10;13.80;;;21.40;99.90;;;;;;5115288;27;20092;-39
2023/06/26 01:18:09;;;;;;;16.42;14.88;;;21.40;99.90;;;;;;5114444;27;20183;-40
2023/06/26 01:20:36;;;;;;;16.75;15.23;;;21.40;99.90;;;;;;5113748;27;20476;-39
2023/06/26 01:23:22;;;;;;;16.17;14.77;;;21.40;99.90;;;;;;5114146;27;20081;-39
2023/06/26 01:26:09;;;;;;;16.83;15.13;;;21.40;99.90;;;;;;5115211;27;20393;-39
2023/06/26 01:28:39;;;;;;;16.67;15.15;;;21.30;99.90;;;;;;5115187;27;20043;-40
2023/06/26 01:31:06;;;;;;;16.45;14.93;;;21.30;99.90;;;;;;5114812;27;20489;-39
2023/06/26 01:33:32;;;;;;;16.02;14.63;;;21.30;99.90;;;;;;5114450;27;20043;-39
2023/06/26 01:35:58;;;;;;;15.65;14.25;;;21.30;99.90;;;;;;5099703;27;20074;-39
2023/06/26 01:38:25;;;;;;;16.23;14.82;;;21.30;99.90;;;;;;5113503;27;20177;-39
2023/06/26 01:40:51;;;;;;;16.52;15.13;;;21.30;99.90;;;;;;5113094;27;20112;-39
2023/06/26 01:43:38;;;;;;;17.02;15.68;;;21.30;99.90;;;;;;5107159;27;20043;-39
2023/06/26 01:46:17;;;;;;;19.92;18.23;;;21.20;99.90;;;;;;5109050;27;20139;-40
2023/06/26 01:49:06;;;;;;;19.92;18.05;;;21.20;99.90;;;;;;5135086;27;20039;-39
2023/06/26 01:51:41;;;;;;;19.40;17.75;;;21.10;99.90;;;;;;5134575;27;20053;-39
2023/06/26 01:54:13;;;;;;;18.77;17.23;;;21.10;99.90;;;;;;5135536;27;20512;-39
2023/06/26 01:56:42;;;;;;;18.58;17.08;;;21.00;99.90;;;;;;5113498;27;20122;-39
2023/06/26 01:59:08;;;;;;;19.25;17.42;;;21.00;99.90;;;;;;5114738;27;20438;-39
2023/06/26 02:01:34;;;;;;;18.73;17.02;;;20.90;99.90;;;;;;5108822;27;20393;-39
2023/06/26 02:04:00;;;;;;;19.40;17.52;;;20.90;99.90;;;;;;5115650;27;20047;-41
2023/06/26 02:06:25;;;;;;;18.05;16.48;;;20.90;99.90;;;;;;5132435;27;20530;-39
2023/06/26 02:08:51;;;;;;;18.40;16.75;;;20.90;99.90;;;;;;5134970;27;20046;-39
2023/06/26 02:11:17;;;;;;;17.48;15.98;;;20.90;99.90;;;;;;5135587;27;20139;-39
2023/06/26 02:13:42;;;;;;;18.33;16.70;;;20.90;99.90;;;;;;5134205;27;20086;-39
2023/06/26 02:16:08;;;;;;;18.75;17.10;;;20.90;99.90;;;;;;5134388;27;20031;-40
2023/06/26 02:18:34;;;;;;;17.00;15.55;;;20.90;99.90;;;;;;5135849;27;20507;-39
2023/06/26 02:21:00;;;;;;;18.60;16.98;;;20.90;99.90;;;;;;5135144;27;20424;-39
2023/06/26 02:23:25;;;;;;;19.45;17.60;;;21.00;99.90;;;;;;5117242;27;20054;-39
2023/06/26 02:25:51;;;;;;;18.17;16.38;;;21.00;99.90;;;;;;5135020;27;20096;-39
2023/06/26 02:28:16;;;;;;;18.58;16.98;;;21.00;99.90;;;;;;5116337;27;20057;-39
2023/06/26 02:30:42;;;;;;;18.60;17.00;;;21.10;99.90;;;;;;5115747;27;20046;-39
2023/06/26 02:33:08;;;;;;;17.67;16.17;;;21.00;99.90;;;;;;5134724;27;20042;-39
2023/06/26 02:35:33;;;;;;;18.23;16.70;;;21.00;99.90;;;;;;5104721;27;20046;-39
2023/06/26 02:37:59;;;;;;;16.88;15.48;;;21.00;99.90;;;;;;5118128;27;20047;-39
2023/06/26 02:40:25;;;;;;;18.77;16.55;;;21.00;99.90;;;;;;5096202;27;20137;-39
2023/06/26 02:42:50;;;;;;;16.60;15.20;;;21.00;99.90;;;;;;5126992;27;20633;-39
2023/06/26 02:45:16;;;;;;;19.27;17.45;;;20.90;99.90;;;;;;5108678;27;20039;-39
2023/06/26 02:47:42;;;;;;;18.70;17.00;;;20.90;99.90;;;;;;5111236;27;20064;-40
2023/06/26 02:50:08;;;;;;;17.88;16.27;;;20.90;99.90;;;;;;5094517;27;20054;-39
2023/06/26 02:52:33;;;;;;;18.15;16.30;;;20.90;99.90;;;;;;5115249;27;20057;-39
2023/06/26 02:54:59;;;;;;;17.80;16.20;;;20.90;99.90;;;;;;5118199;27;20533;-39
2023/06/26 02:57:24;;;;;;;16.05;14.30;;;20.90;99.90;;;;;;5117695;27;20054;-39
2023/06/26 02:59:50;;;;;;;15.07;13.43;;;20.90;99.90;;;;;;5118116;27;20035;-39
2023/06/26 03:02:16;;;;;;;13.93;12.02;;;20.90;99.90;;;;;;5099797;27;20347;-38
2023/06/26 03:04:42;;;;;;;14.05;12.13;;;20.90;99.90;;;;;;5133861;27;20043;-39
2023/06/26 03:07:08;;;;;;;12.30;11.10;;;20.90;99.90;;;;;;5139140;27;20095;-39
2023/06/26 03:09:34;;;;;;;11.35;10.25;;;21.00;99.90;;;;;;5139013;27;20038;-39
2023/06/26 03:12:00;;;;;;;13.30;10.95;;;21.00;99.90;;;;;;5138547;27;20098;-38
2023/06/26 03:14:26;;;;;;;13.48;12.10;;;21.00;99.90;;;;;;5115792;27;20042;-39
2023/06/26 03:16:52;;;;;;;11.23;9.98;;;21.00;99.90;;;;;;5137979;27;20575;-38
2023/06/26 03:19:18;;;;;;;14.73;10.15;;;21.00;99.90;;;;;;5140239;27;20092;-38
2023/06/26 03:21:44;;;;;;;11.95;10.15;;;21.00;99.90;;;;;;5138911;27;20380;-39
2023/06/26 03:24:09;;;;;;;14.05;11.10;;;21.00;99.90;;;;;;5137514;27;20607;-39
2023/06/26 03:26:35;;;;;;;13.20;10.98;;;21.10;99.90;;;;;;5138075;27;20056;-39
2023/06/26 03:29:01;;;;;;;12.45;9.90;;;21.10;99.90;;;;;;5116921;27;20201;-39
2023/06/26 03:31:26;;;;;;;11.30;10.07;;;21.10;99.90;;;;;;5100588;27;20111;-39
2023/06/26 03:33:52;;;;;;;13.93;10.25;;;21.10;99.90;;;;;;5109748;27;20436;-39
2023/06/26 03:36:18;;;;;;;13.35;9.73;;;21.20;99.90;;;;;;5103023;27;20217;-39
2023/06/26 03:38:43;;;;;;;15.00;9.27;;;21.20;99.90;;;;;;5102602;27;20048;-39
2023/06/26 03:41:09;;;;;;;13.90;10.55;;;21.20;99.90;;;;;;5117080;27;20046;-39
2023/06/26 03:43:35;;;;;;;12.80;10.40;;;21.20;99.90;;;;;;5086855;27;20048;-39
2023/06/26 03:46:01;;;;;;;13.82;10.52;;;21.20;99.90;;;;;;5117900;27;20092;-39
2023/06/26 03:48:27;;;;;;;16.63;10.23;;;21.30;99.90;;;;;;5139364;27;20126;-39
2023/06/26 03:50:53;;;;;;;14.57;10.05;;;21.30;99.90;;;;;;5139149;27;20061;-39
2023/06/26 03:53:19;;;;;;;13.00;9.75;;;21.30;99.90;;;;;;5137990;27;20051;-39
2023/06/26 03:55:44;;;;;;;13.68;10.20;;;21.30;99.90;;;;;;5119028;27;20413;-39
2023/06/26 03:58:10;;;;;;;13.48;10.57;;;21.20;99.90;;;;;;5136280;27;20598;-39
2023/06/26 04:00:35;;;;;;;13.55;10.90;;;21.20;99.90;;;;;;5134332;27;20045;-39
2023/06/26 04:03:03;;;;;;;15.50;11.13;;;21.20;99.90;;;;;;5115254;27;20038;-39
2023/06/26 04:05:29;;;;;;;16.30;11.27;;;21.20;99.90;;;;;;5115588;27;20404;-39
2023/06/26 04:07:55;;;;;;;14.27;11.32;;;21.10;99.90;;;;;;5115214;27;20047;-39
2023/06/26 04:10:21;;;;;;;12.10;10.93;;;21.00;99.90;;;;;;5115783;27;20068;-39
2023/06/26 04:12:47;;;;;;;18.80;11.80;;;21.00;99.90;;;;;;5095822;27;20573;-39
2023/06/26 04:15:13;;;;;;;15.38;11.95;;;21.00;99.90;;;;;;5114577;27;20070;-39
2023/06/26 04:17:39;;;;;;;17.75;11.32;;;21.00;99.90;;;;;;5068195;27;20497;-39
2023/06/26 04:20:06;;;;;;;18.42;12.40;;;20.90;99.90;;;;;;5137889;27;20034;-39
2023/06/26 04:22:33;;;;;;;17.50;12.93;;;20.90;99.90;;;;;;5136031;27;20123;-39
2023/06/26 04:24:58;;;;;;;18.88;12.20;;;20.90;99.90;;;;;;5136724;27;20042;-39
2023/06/26 04:27:24;;;;;;;19.20;12.90;;;20.80;99.90;;;;;;5118685;27;20054;-39
2023/06/26 04:29:49;;;;;;;22.90;12.68;;;20.80;99.90;;;;;;5138320;27;20134;-39
2023/06/26 04:32:15;;;;;;;19.90;11.38;;;20.70;99.90;;;;;;5137961;27;20039;-39
2023/06/26 04:34:43;;;;;;;19.75;13.38;;;20.80;99.90;;;;;;5102659;27;20378;-39
2023/06/26 04:37:09;;;;;;;17.02;12.23;;;20.80;99.90;;;;;;5123952;27;20051;-39
2023/06/26 04:39:38;;;;;;;16.02;12.63;;;20.80;99.90;;;;;;5096834;28;20050;-39
2023/06/26 04:42:06;;;;;;;23.05;12.55;;;20.80;99.90;;;;;;5111297;27;20152;-39
2023/06/26 04:44:32;;;;;;;19.00;12.77;;;20.80;99.90;;;;;;5088881;27;20390;-39
2023/06/26 04:46:57;;;;;;;20.50;11.88;;;20.70;99.90;;;;;;5115476;27;20561;-39
2023/06/26 04:49:23;;;;;;;15.43;10.35;;;20.70;99.90;;;;;;5116303;27;20079;-39
2023/06/26 04:51:50;;;;;;;15.90;10.48;;;20.60;99.90;;;;;;5115741;27;20465;-39
2023/06/26 04:54:16;;;;;;;16.10;10.27;;;20.60;99.90;;;;;;5116067;27;20047;-39
2023/06/26 04:56:43;;;;;;;15.45;9.93;;;20.50;99.90;;;;;;5115093;27;20570;-39
2023/06/26 04:59:13;;;;;;;12.50;9.68;;;20.50;99.90;;;;;;5115448;27;20058;-39
2023/06/26 05:01:39;;;;;;;11.50;8.82;;;20.50;99.90;;;;;;5095612;27;20202;-39
2023/06/26 05:04:05;;;;;;;11.32;7.20;;;20.60;99.90;;;;;;5096509;27;20075;-39
2023/06/26 05:06:31;;;;;;;12.25;7.15;;;20.60;99.90;;;;;;5115322;27;20043;-39
2023/06/26 05:08:57;;;;;;;13.32;6.20;;;21.10;99.90;;;;;;5115914;27;20050;-39
2023/06/26 05:11:23;;;;;;;16.60;6.78;;;21.80;99.90;;;;;;5116268;27;20210;-39
2023/06/26 05:13:49;;;;;;;13.98;5.90;;;22.60;99.90;;;;;;5116173;27;20083;-39
2023/06/26 05:16:15;;;;;;;10.77;5.45;;;23.40;99.90;;;;;;5095948;27;20047;-39
2023/06/26 05:18:40;;;;;;;11.27;6.00;;;23.70;99.90;;;;;;5115521;27;20050;-39
2023/06/26 05:21:07;;;;;;;10.30;5.50;;;23.90;99.90;;;;;;5115998;27;20054;-40
2023/06/26 05:23:33;;;;;;;11.90;5.25;;;24.20;99.90;;;;;;5114532;27;20051;-39
2023/06/26 05:26:00;;;;;;;14.55;4.80;;;23.90;99.90;;;;;;5095857;27;20034;-40
2023/06/26 05:28:30;;;;;;;11.80;5.30;;;23.50;99.90;;;;;;5115992;27;20077;-40
2023/06/26 05:30:57;;;;;;;12.15;5.47;;;23.20;99.90;;;;;;5097646;27;20429;-40
2023/06/26 05:33:24;;;;;;;13.15;5.05;;;23.20;99.90;;;;;;5116103;27;20078;-39
2023/06/26 05:35:52;;;;;;;10.27;4.63;;;23.20;99.90;;;;;;5103484;27;20054;-39
2023/06/26 05:38:19;;;;;;;11.20;4.95;;;23.30;99.90;;;;;;5113751;27;20416;-40
2023/06/26 05:40:45;;;;;;;12.27;4.90;;;23.30;99.90;;;;;;5082208;27;20704;-40
2023/06/26 05:43:11;;;;;;;9.05;4.38;;;23.40;99.90;;;;;;5108769;27;20515;-40
2023/06/26 05:45:36;;;;;;;11.93;4.53;;;24.40;99.90;;;;;;5116783;27;20068;-40
2023/06/26 05:48:02;;;;;;;9.45;3.63;;;25.70;99.90;;;;;;5114225;27;20042;-40
2023/06/26 05:50:29;;;;;;;7.50;3.85;;;26.70;99.90;;;;;;5135624;27;20047;-40
2023/06/26 05:52:55;;;;;;;8.77;4.15;;;27.80;99.90;;;;;;5134499;27;20165;-40
2023/06/26 05:55:21;;;;;;;7.30;4.38;;;28.90;99.90;;;;;;5089528;27;20378;-41
2023/06/26 05:57:47;;;;;;;9.63;4.13;;;29.30;99.60;;;;;;5116607;27;20076;-41
2023/06/26 06:00:14;;;;;;;7.90;3.90;;;29.00;97.80;;;;;;5135100;27;20042;-43
2023/06/26 06:02:41;;;;;;;10.05;3.80;;;29.30;98.90;;;;;;5116060;27;20516;-40
2023/06/26 06:05:07;;;;;;;11.10;4.07;;;29.90;97.40;;;;;;5135449;27;20114;-41
2023/06/26 06:07:34;;;;;;;9.05;3.53;;;30.30;96.60;;;;;;5134659;27;20038;-41
2023/06/26 06:10:00;;;;;;;10.40;4.25;;;30.30;96.60;;;;;;5115068;27;20126;-41
2023/06/26 06:12:25;;;;;;;6.38;3.75;;;30.80;95.70;;;;;;5098428;27;20474;-41
2023/06/26 06:14:52;;;;;;;9.02;3.70;;;31.40;95.80;;;;;;5095176;27;20093;-41
2023/06/26 06:17:18;;;;;;;9.55;3.92;;;31.80;93.90;;;;;;5083770;28;20139;-42
2023/06/26 06:19:44;;;;;;;8.38;3.28;;;32.00;94.10;;;;;;5079958;28;20367;-42
2023/06/26 06:22:10;;;;;;;6.90;3.20;;;31.70;93.40;;;;;;5074340;28;20776;-41
2023/06/26 06:24:36;;;;;;;6.65;3.22;;;32.20;93.90;;;;;;5100665;27;20508;-42
2023/06/26 06:27:02;;;;;;;7.22;3.33;;;32.60;93.10;;;;;;5097632;27;20046;-41
2023/06/26 06:29:27;;;;;;;7.65;3.45;;;33.00;92.10;;;;;;5079577;28;20044;-41
2023/06/26 06:31:53;;;;;;;5.45;3.17;;;33.10;91.20;;;;;;5096025;27;20557;-41
2023/06/26 06:34:19;;;;;;;8.05;3.75;;;32.50;90.60;;;;;;5107778;27;20031;-41
2023/06/26 06:36:44;;;;;;;5.70;3.25;;;32.70;90.50;;;;;;5116902;27;20108;-42
2023/06/26 06:39:10;;;;;;;5.53;2.72;;;33.10;90.60;;;;;;5099497;27;20493;-41
2023/06/26 06:41:36;;;;;;;6.70;2.92;;;32.80;89.30;;;;;;5106800;27;20043;-40
2023/06/26 06:44:01;;;;;;;5.45;3.00;;;32.80;88.40;;;;;;5110541;27;20042;-42
2023/06/26 06:46:27;;;;;;;11.27;3.65;;;33.00;88.80;;;;;;5118169;27;20461;-41
2023/06/26 06:48:53;;;;;;;7.05;3.03;;;32.40;87.40;;;;;;5114023;27;20042;-40
2023/06/26 06:51:19;;;;;;;5.38;2.80;;;32.20;87.50;;;;;;5133720;27;20484;-41
2023/06/26 06:53:44;;;;;;;7.43;2.95;;;32.40;88.60;;;;;;5135625;27;20041;-41
2023/06/26 06:56:10;;;;;;;4.80;2.60;;;32.10;88.40;;;;;;5134638;27;20694;-42
2023/06/26 06:58:36;;;;;;;6.38;3.40;;;31.80;88.90;;;;;;5116826;27;20547;-41
2023/06/26 07:01:02;;;;;;;5.90;3.10;;;31.90;89.30;;;;;;5116167;27;20046;-40
2023/06/26 07:03:28;;;;;;;5.28;2.83;;;32.10;89.50;;;;;;5133746;27;20115;-40
2023/06/26 07:05:56;;;;;;;8.40;2.97;;;31.90;88.80;;;;;;5133893;27;20039;-40
2023/06/26 07:08:21;;;;;;;4.95;2.53;;;32.20;87.70;;;;;;5129679;27;20136;-40
2023/06/26 07:10:47;;;;;;;5.10;2.38;;;32.50;87.60;;;;;;5096736;28;20043;-42
2023/06/26 07:13:12;;;;;;;8.50;2.38;;;33.20;87.40;;;;;;5114096;27;20043;-42
2023/06/26 07:15:38;;;;;;;4.57;2.40;;;33.40;85.50;;;;;;5095134;28;20392;-42
2023/06/26 07:18:04;;;;;;;5.00;2.72;;;33.50;84.60;;;;;;5114179;27;20043;-41
2023/06/26 07:20:30;;;;;;;4.25;2.38;;;33.20;84.10;;;;;;5114147;27;20043;-40
2023/06/26 07:22:55;;;;;;;8.88;3.00;;;33.20;84.30;;;;;;5095287;27;20048;-41
2023/06/26 07:25:21;;;;;;;9.02;2.90;;;32.80;85.50;;;;;;5114560;27;20044;-42
2023/06/26 07:27:46;;;;;;;5.13;2.35;;;32.50;86.70;;;;;;5114145;27;20075;-41
2023/06/26 07:30:12;;;;;;;7.30;3.10;;;30.80;89.50;;;;;;5114372;28;20043;-43
2023/06/26 07:32:40;;;;;;;5.45;2.78;;;30.00;90.80;;;;;;5113669;27;20575;-41
2023/06/26 07:35:06;;;;;;;5.88;2.83;;;29.30;91.60;;;;;;5101800;27;20349;-40
2023/06/26 07:37:31;;;;;;;6.72;2.83;;;28.70;92.30;;;;;;5129339;27;20046;-41
2023/06/26 07:39:57;;;;;;;4.60;2.60;;;28.10;92.90;;;;;;5117048;27;20035;-41
2023/06/26 07:42:23;;;;;;;7.30;3.10;;;27.60;92.90;;;;;;5133418;27;20039;-41
2023/06/26 07:44:49;;;;;;;6.03;2.92;;;27.70;93.50;;;;;;5121311;27;20060;-40
2023/06/26 07:47:15;;;;;;;4.53;2.70;;;28.00;93.70;;;;;;5137932;27;20039;-42
2023/06/26 07:49:40;;;;;;;8.75;2.92;;;27.40;93.70;;;;;;5138582;27;20185;-40
2023/06/26 07:52:06;;;;;;;8.90;2.97;;;27.60;94.00;;;;;;5101351;27;20043;-40
2023/06/26 07:54:32;;;;;;;8.30;3.30;;;27.80;94.20;;;;;;5117775;27;20602;-41
2023/06/26 07:56:59;;;;;;;8.35;3.08;;;27.70;94.30;;;;;;5116362;27;20039;-41
2023/06/26 07:59:27;;;;;;;6.63;2.92;;;27.10;94.40;;;;;;5117623;27;20564;-41
2023/06/26 08:01:54;;;;;;;4.00;2.70;;;27.10;94.50;;;;;;5116725;27;20051;-40
2023/06/26 08:04:21;;;;;;;8.60;3.40;;;26.80;94.50;;;;;;5099036;27;20437;-40
2023/06/26 08:06:51;;;;;;;6.22;2.90;;;26.40;95.10;;;;;;5117107;27;20047;-40
2023/06/26 08:09:18;;;;;;;5.22;2.90;;;26.80;95.50;;;;;;5118002;27;20071;-40
2023/06/26 08:11:44;;;;;;;8.45;3.17;;;26.80;95.40;;;;;;5116563;27;20039;-40
2023/06/26 08:14:11;;;;;;;6.78;3.20;;;26.80;95.40;;;;;;5113470;27;20453;-40
2023/06/26 08:16:40;;;;;;;9.05;3.40;;;27.00;95.40;;;;;;5115951;27;20187;-40
2023/06/26 08:19:07;;;;;;;9.23;3.50;;;26.70;95.70;;;;;;5116907;27;20523;-41
2023/06/26 08:21:32;;;;;;;4.88;3.25;;;26.60;95.60;;;;;;5116547;27;20126;-40
2023/06/26 08:23:58;;;;;;;7.75;3.35;;;26.30;95.80;;;;;;5104058;27;20123;-40
2023/06/26 08:26:24;;;;;;;5.68;3.65;;;26.10;96.20;;;;;;5111842;27;20443;-41
2023/06/26 08:28:49;;;;;;;5.97;3.22;;;26.00;96.50;;;;;;5115565;27;20053;-40
2023/06/26 08:31:17;;;;;;;9.25;3.30;;;25.70;96.60;;;;;;5113408;27;20043;-41
2023/06/26 08:33:43;;;;;;;9.20;2.97;;;25.50;96.20;;;;;;5103405;27;20157;-41
2023/06/26 08:36:08;;;;;;;10.25;3.47;;;25.50;96.00;;;;;;5103755;27;20054;-41
2023/06/26 08:38:34;;;;;;;6.05;3.42;;;25.20;96.90;;;;;;5101136;27;20047;-40
2023/06/26 08:41:00;;;;;;;6.03;3.00;;;25.20;97.00;;;;;;5109374;27;20095;-40
2023/06/26 08:43:26;;;;;;;6.10;3.00;;;25.10;97.10;;;;;;5101349;27;20097;-40
2023/06/26 08:45:52;;;;;;;10.90;3.45;;;25.10;96.90;;;;;;5108459;27;20154;-40
2023/06/26 08:48:20;;;;;;;8.95;3.25;;;25.20;97.20;;;;;;5137713;27;20574;-40
2023/06/26 08:50:48;;;;;;;5.85;4.05;;;25.10;97.30;;;;;;5111007;27;20043;-42
2023/06/26 08:53:39;;;;;;;7.45;3.63;;;24.70;97.40;;;;;;5115202;27;20512;-40
2023/06/26 08:56:06;;;;;;;9.63;4.22;;;24.70;98.20;;;;;;5114263;27;20043;-39
2023/06/26 08:58:32;;;;;;;7.22;3.55;;;24.60;97.90;;;;;;5105941;27;20047;-40
2023/06/26 09:00:58;;;;;;;5.93;4.00;;;24.40;97.70;;;;;;5107784;27;20089;-39
2023/06/26 09:03:25;;;;;;;6.95;3.95;;;24.30;98.20;;;;;;5135426;27;20043;-40
2023/06/26 09:05:51;;;;;;;6.45;4.18;;;24.20;98.60;;;;;;5135185;27;20084;-40
2023/06/26 09:08:17;;;;;;;5.63;3.35;;;24.40;99.30;;;;;;5136655;27;20043;-40
2023/06/26 09:10:42;;;;;;;7.30;3.95;;;24.70;98.70;;;;;;5136793;27;20094;-40
2023/06/26 09:13:08;;;;;;;7.45;4.05;;;24.80;98.60;;;;;;5084110;27;20145;-39
2023/06/26 09:15:39;;;;;;;10.50;3.55;;;24.90;98.20;;;;;;5115338;27;20039;-40
2023/06/26 09:18:05;;;;;;;6.90;3.83;;;25.10;98.70;;;;;;5096855;27;20419;-39
2023/06/26 09:20:33;;;;;;;12.05;5.30;;;25.10;97.80;;;;;;5115556;27;20115;-39
2023/06/26 09:22:59;;;;;;;9.35;4.78;;;25.00;97.70;;;;;;5113604;27;20137;-40
2023/06/26 09:25:26;;;;;;;7.35;4.40;;;24.90;98.10;;;;;;5113952;27;20382;-40
2023/06/26 09:27:52;;;;;;;9.48;4.68;;;24.90;98.20;;;;;;5096283;27;20035;-40
2023/06/26 09:30:19;;;;;;;7.70;4.47;;;25.10;98.80;;;;;;5106502;27;20509;-41
2023/06/26 09:32:44;;;;;;;6.93;4.38;;;25.50;98.30;;;;;;5115117;27;20054;-41
2023/06/26 09:35:11;;;;;;;9.40;4.25;;;25.50;97.80;;;;;;5083839;28;20047;-40
2023/06/26 09:37:37;;;;;;;8.02;4.40;;;25.40;97.70;;;;;;5107522;27;20066;-40
2023/06/26 09:40:04;;;;;;;8.20;4.00;;;25.50;98.10;;;;;;5098764;27;20047;-41
2023/06/26 09:42:30;;;;;;;7.57;3.53;;;25.50;96.90;;;;;;5107902;27;20051;-40
2023/06/26 09:44:56;;;;;;;10.90;5.22;;;25.50;97.80;;;;;;5106162;27;20043;-39
2023/06/26 09:47:22;;;;;;;7.40;4.03;;;25.60;97.90;;;;;;5108368;27;20044;-41
2023/06/26 09:49:48;;;;;;;7.50;4.10;;;25.40;95.90;;;;;;5110276;27;20039;-40
2023/06/26 09:52:19;;;;;;;8.40;4.10;;;25.40;96.80;;;;;;5080360;27;20072;-39
2023/06/26 09:54:46;;;;;;;7.03;3.83;;;25.40;97.90;;;;;;5089457;27;20055;-40
2023/06/26 09:57:13;;;;;;;11.10;3.78;;;25.20;97.10;;;;;;5095378;27;20042;-40
2023/06/26 09:59:40;;;;;;;9.95;4.03;;;24.70;97.60;;;;;;5101457;27;20096;-39
2023/06/26 10:02:06;;;;;;;6.35;3.63;;;24.40;97.90;;;;;;5109838;27;20078;-39
2023/06/26 10:04:33;;;;;;;8.65;4.07;;;24.20;98.00;;;;;;5114936;27;20104;-39
2023/06/26 10:07:02;;;;;;;6.93;3.65;;;24.40;98.60;;;;;;5113028;27;20061;-39
2023/06/26 10:09:30;;;;;;;8.93;3.67;;;24.90;98.80;;;;;;5093420;27;20050;-39
2023/06/26 10:12:19;;;;;;;8.38;3.95;;;25.00;97.80;;;;;;5103431;27;20075;-39
2023/06/26 10:14:45;;;;;;;9.77;4.20;;;24.70;97.50;;;;;;5095900;27;20051;-40
2023/06/26 10:17:16;;;;;;;5.95;3.80;;;24.30;97.90;;;;;;5088411;27;20904;-39
2023/06/26 10:19:44;;;;;;;6.95;3.63;;;24.00;98.30;;;;;;5097606;27;20540;-41
2023/06/26 10:22:12;;;;;;;5.97;3.90;;;24.20;98.80;;;;;;5113952;27;20120;-39
2023/06/26 10:24:40;;;;;;;14.43;3.05;;;24.40;98.90;;;;;;5088467;28;20098;-39
2023/06/26 10:27:14;;;;;;;8.70;3.30;;;25.00;98.80;;;;;;5103838;27;20035;-40
2023/06/26 10:29:41;;;;;;;8.70;3.88;;;24.80;97.60;;;;;;5100664;27;20096;-39
2023/06/26 10:32:11;;;;;;;6.95;3.70;;;24.50;97.80;;;;;;5104484;27;20062;-41
2023/06/26 10:34:36;;;;;;;8.55;4.18;;;24.70;98.00;;;;;;5102281;27;20035;-40
2023/06/26 10:37:06;;;;;;;6.82;4.05;;;24.50;97.80;;;;;;5101935;27;20040;-39
2023/06/26 10:39:45;;;;;;;9.15;3.80;;;24.30;97.90;;;;;;5104453;27;20074;-40
2023/06/26 10:42:11;;;;;;;11.23;3.78;;;24.50;98.60;;;;;;5109259;27;20042;-40
2023/06/26 10:44:44;;;;;;;9.25;4.13;;;24.40;97.60;;;;;;5104909;27;20044;-40
2023/06/26 10:47:11;;;;;;;11.55;4.00;;;24.10;98.20;;;;;;5099496;27;20110;-39
2023/06/26 10:49:39;;;;;;;9.15;3.92;;;24.00;98.50;;;;;;5102134;28;20039;-40
2023/06/26 10:52:05;;;;;;;8.43;3.38;;;23.70;98.90;;;;;;5101491;27;20047;-39
2023/06/26 10:54:32;;;;;;;8.77;2.88;;;23.50;99.00;;;;;;5099103;27;20567;-39
2023/06/26 10:56:58;;;;;;;10.38;2.72;;;23.90;98.70;;;;;;5130292;27;20061;-40
2023/06/26 10:59:26;;;;;;;9.88;3.03;;;23.90;97.60;;;;;;5129564;27;20039;-39
2023/06/26 11:01:58;;;;;;;5.95;2.65;;;24.30;98.70;;;;;;5092070;27;20040;-40
2023/06/26 11:04:45;;;;;;;5.15;2.00;;;24.60;96.90;;;;;;5093362;27;20055;-40
2023/06/26 11:07:18;;;;;;;8.30;1.90;;;24.50;96.00;;;;;;5097902;27;20445;-47
2023/06/26 11:09:55;;;;;;;5.57;1.73;;;24.50;96.70;;;;;;5095431;27;20074;-39
2023/06/26 11:12:34;;;;;;;8.93;2.58;;;24.30;95.80;;;;;;5095066;28;20171;-41
2023/06/26 11:15:00;;;;;;;8.40;2.88;;;24.10;96.10;;;;;;5116021;27;20082;-39
2023/06/26 11:17:28;;;;;;;6.93;2.50;;;23.90;96.00;;;;;;5115464;27;20040;-40
2023/06/26 11:19:55;;;;;;;7.13;2.45;;;23.90;96.70;;;;;;5116305;27;20439;-40
2023/06/26 11:22:23;;;;;;;9.43;2.63;;;23.80;96.40;;;;;;5097127;27;20530;-39
2023/06/26 11:24:52;;;;;;;7.47;2.85;;;23.80;95.50;;;;;;5081707;28;20124;-39
2023/06/26 11:27:18;;;;;;;9.20;2.80;;;24.10;96.10;;;;;;5104872;27;20244;-39
2023/06/26 11:29:48;;;;;;;6.32;2.70;;;24.20;96.10;;;;;;5115154;27;20053;-39
2023/06/26 11:32:14;;;;;;;4.85;2.22;;;24.30;95.40;;;;;;5115879;27;20160;-40
2023/06/26 11:34:41;;;;;;;7.85;2.90;;;24.30;95.20;;;;;;5073571;28;20040;-40
2023/06/26 11:37:07;;;;;;;7.10;2.60;;;24.30;95.20;;;;;;5105514;27;20046;-40
2023/06/26 11:39:33;;;;;;;6.75;2.33;;;24.00;94.90;;;;;;5097130;27;20143;-40
2023/06/26 11:42:00;;;;;;;3.85;1.92;;;23.90;95.00;;;;;;5092543;27;20047;-40
2023/06/26 11:44:29;;;;;;;8.30;2.33;;;23.90;95.60;;;;;;5108937;27;20046;-40
2023/06/26 11:46:56;;;;;;;7.70;2.65;;;23.70;95.40;;;;;;5098593;27;20047;-40
2023/06/26 11:49:25;;;;;;;8.27;2.08;;;23.70;95.40;;;;;;5116723;27;20371;-40
2023/06/26 11:51:51;;;;;;;13.30;3.03;;;23.80;95.30;;;;;;5102038;27;20132;-40
2023/06/26 11:54:24;;;;;;;7.72;2.67;;;23.70;95.50;;;;;;5101272;27;20047;-41
2023/06/26 11:56:58;;;;;;;7.22;2.13;;;23.90;95.90;;;;;;5103889;27;20610;-40
2023/06/26 11:59:25;;;;;;;8.18;3.08;;;24.20;95.90;;;;;;5092411;27;20047;-40
2023/06/26 12:01:52;;;;;;;12.00;3.15;;;24.40;95.90;;;;;;5096360;27;20292;-42
2023/06/26 12:04:19;;;;;;;6.90;2.60;;;24.20;94.60;;;;;;5100481;27;20112;-41
2023/06/26 12:06:50;;;;;;;7.15;2.50;;;24.00;94.80;;;;;;5107111;27;20047;-41
2023/06/26 12:09:19;;;;;;;6.45;3.15;;;23.90;95.50;;;;;;5079340;27;20480;-40
2023/06/26 12:11:48;;;;;;;7.60;2.92;;;23.70;96.40;;;;;;5112660;27;20154;-40
2023/06/26 12:14:14;;;;;;;7.97;2.83;;;23.80;96.20;;;;;;5095068;27;20118;-40
2023/06/26 12:16:40;;;;;;;5.60;2.20;;;23.90;96.60;;;;;;5098144;27;20046;-41
2023/06/26 12:19:08;;;;;;;7.50;2.13;;;23.90;96.10;;;;;;5098851;27;20376;-41
2023/06/26 12:21:34;;;;;;;7.82;2.22;;;24.10;96.60;;;;;;5098781;27;20039;-40
2023/06/26 12:24:00;;;;;;;7.78;2.92;;;24.30;96.00;;;;;;5099684;27;20047;-39
2023/06/26 12:26:28;;;;;;;7.85;2.50;;;24.00;96.40;;;;;;5095423;27;20047;-40
2023/06/26 12:29:01;;;;;;;7.82;3.17;;;24.10;96.50;;;;;;5078088;27;20043;-40
2023/06/26 12:31:26;;;;;;;8.32;2.75;;;24.40;96.50;;;;;;5097050;27;20055;-39
2023/06/26 12:33:52;;;;;;;11.65;2.70;;;24.20;95.80;;;;;;5093685;27;20039;-41
2023/06/26 12:36:18;;;;;;;9.43;2.85;;;24.00;95.40;;;;;;5100583;27;20464;-40
2023/06/26 12:38:46;;;;;;;7.55;2.45;;;23.90;95.40;;;;;;5095293;27;20039;-40